Time;durP1;ratioP1;P1;durP2;ratioP2;P2;SDS_P1;SDS_P2;PMS_P1;PMS_P2;Temp;Humidity;BMP_temperature;BMP_pressure;BME280_temperature;BME280_humidity;BME280_pressure;Samples;Min_cycle;Max_cycle;Signal;HPM_P1;HPM_P2
2022/08/31 00:04:44;;;;;;;6.03;3.05;;;;;;;16.22;100.00;102361.41;7377236;19;20026;-73
2022/08/31 00:07:14;;;;;;;5.85;2.80;;;;;;;16.17;100.00;102368.41;7373003;19;20014;-73
2022/08/31 00:09:43;;;;;;;6.13;2.78;;;;;;;16.14;100.00;102371.88;7374637;19;20044;-73
2022/08/31 00:12:13;;;;;;;4.88;2.70;;;;;;;16.09;100.00;102359.44;7376162;19;20517;-73
2022/08/31 00:14:43;;;;;;;8.52;2.85;;;;;;;16.08;100.00;102361.22;7377316;19;20026;-73
2022/08/31 00:17:13;;;;;;;6.07;2.90;;;;;;;16.04;100.00;102362.03;7372436;19;20511;-76
2022/08/31 00:19:46;;;;;;;5.25;2.85;;;;;;;16.09;100.00;102370.03;7375198;19;20078;-75
2022/08/31 00:22:15;;;;;;;7.63;3.30;;;;;;;16.04;100.00;102359.38;7375936;19;20014;-75
2022/08/31 00:24:45;;;;;;;7.95;3.10;;;;;;;15.99;100.00;102355.78;7377379;19;20022;-75
2022/08/31 00:27:15;;;;;;;6.82;2.88;;;;;;;15.94;100.00;102366.28;7375388;19;20454;-75
2022/08/31 00:29:45;;;;;;;6.63;2.95;;;;;;;15.95;100.00;102361.88;7375351;19;20018;-76
2022/08/31 00:32:15;;;;;;;7.78;2.80;;;;;;;15.93;100.00;102369.81;7378192;19;20049;-76
2022/08/31 00:34:53;;;;;;;6.93;3.10;;;;;;;15.87;100.00;102368.81;7374240;19;20038;-73
2022/08/31 00:37:23;;;;;;;5.47;2.70;;;;;;;15.86;100.00;102372.31;7376425;19;20014;-75
2022/08/31 00:39:54;;;;;;;5.15;2.80;;;;;;;15.85;100.00;102365.25;7380359;19;20023;-75
2022/08/31 00:42:24;;;;;;;6.63;3.13;;;;;;;15.82;100.00;102368.75;7378806;19;20011;-76
2022/08/31 00:44:53;;;;;;;5.82;2.78;;;;;;;15.77;100.00;102362.50;7384172;19;20028;-75
2022/08/31 00:47:23;;;;;;;6.15;3.10;;;;;;;15.75;100.00;102371.25;7381587;19;20014;-76
2022/08/31 00:49:55;;;;;;;5.63;2.90;;;;;;;15.72;100.00;102366.81;7382931;19;20036;-75
2022/08/31 00:52:29;;;;;;;5.82;2.83;;;;;;;15.68;100.00;102360.59;7385209;19;21506;-75
2022/08/31 00:55:14;;;;;;;7.53;3.20;;;;;;;15.68;100.00;102357.94;7387578;19;20103;-72
2022/08/31 00:57:47;;;;;;;6.82;2.95;;;;;;;15.63;100.00;102364.00;7378964;19;20023;-73
2022/08/31 01:00:22;;;;;;;5.82;3.30;;;;;;;15.55;100.00;102363.88;7385506;19;20019;-73
2022/08/31 01:02:52;;;;;;;5.35;2.78;;;;;;;15.51;100.00;102366.44;7383844;19;20031;-74
2022/08/31 01:05:25;;;;;;;6.57;2.90;;;;;;;15.47;100.00;102369.91;7384507;19;20010;-75
2022/08/31 01:07:56;;;;;;;5.05;2.75;;;;;;;15.46;100.00;102370.78;7378561;19;20011;-74
2022/08/31 01:10:32;;;;;;;7.53;3.33;;;;;;;15.45;100.00;102371.63;7384685;19;20070;-75
2022/08/31 01:13:04;;;;;;;6.53;3.20;;;;;;;15.41;100.00;102372.44;7381488;19;20006;-75
2022/08/31 01:15:39;;;;;;;6.00;3.00;;;;;;;15.37;100.00;102371.50;7382336;19;20006;-75
2022/08/31 01:18:10;;;;;;;5.65;2.88;;;;;;;15.31;100.00;102369.63;7382994;19;20014;-75
2022/08/31 01:20:56;;;;;;;6.55;3.08;;;;;;;15.30;100.00;102370.50;7385717;19;20065;-74
2022/08/31 01:23:37;;;;;;;6.20;3.05;;;;;;;15.24;100.00;102362.47;7385749;19;20020;-76
2022/08/31 01:26:09;;;;;;;6.30;2.90;;;;;;;15.22;100.00;102366.81;7384534;19;20014;-76
2022/08/31 01:28:39;;;;;;;7.05;3.13;;;;;;;15.18;100.00;102357.06;7377839;19;20067;-75
2022/08/31 01:31:15;;;;;;;6.55;3.20;;;;;;;15.15;100.00;102364.03;7383952;19;20050;-76
2022/08/31 01:33:45;;;;;;;5.43;2.72;;;;;;;15.13;100.00;102366.66;7386443;19;20035;-75
2022/08/31 01:36:17;;;;;;;6.72;3.42;;;;;;;15.11;100.00;102368.38;7383210;19;20003;-75
2022/08/31 01:38:50;;;;;;;5.38;2.95;;;;;;;15.07;100.00;102363.88;7381913;19;20023;-72
2022/08/31 01:41:21;;;;;;;6.68;3.28;;;;;;;15.03;100.00;102362.06;7383057;19;20015;-73
2022/08/31 01:43:53;;;;;;;4.28;2.58;;;;;;;14.98;100.00;102361.97;7378956;19;20094;-73
2022/08/31 01:46:23;;;;;;;7.57;3.15;;;;;;;14.95;100.00;102368.94;7380328;19;20035;-73
2022/08/31 01:48:53;;;;;;;8.90;2.67;;;;;;;14.90;100.00;102367.94;7379806;19;20006;-72
2022/08/31 01:51:24;;;;;;;8.27;3.47;;;;;;;14.87;100.00;102371.44;7381158;19;20395;-72
2022/08/31 01:53:56;;;;;;;6.57;3.13;;;;;;;14.87;100.00;102368.78;7371932;19;20018;-73
2022/08/31 01:56:29;;;;;;;6.93;3.10;;;;;;;14.84;100.00;102373.13;7378930;19;20018;-75
2022/08/31 01:59:00;;;;;;;5.70;3.20;;;;;;;14.80;100.00;102360.72;7379564;19;20014;-73
2022/08/31 02:01:42;;;;;;;7.22;3.28;;;;;;;14.80;100.00;102366.88;7382347;19;20118;-73
2022/08/31 02:04:15;;;;;;;6.20;3.10;;;;;;;14.76;100.00;102369.44;7379534;19;20938;-73
2022/08/31 02:06:47;;;;;;;6.55;2.80;;;;;;;14.71;100.00;102370.22;7379003;19;20015;-73
2022/08/31 02:09:20;;;;;;;6.33;3.13;;;;;;;14.70;100.00;102365.81;7381288;19;20011;-74
2022/08/31 02:11:50;;;;;;;4.43;2.92;;;;;;;14.67;100.00;102371.03;7376675;19;20014;-72
2022/08/31 02:14:22;;;;;;;6.25;3.20;;;;;;;14.63;100.00;102363.00;7380042;19;20014;-72
2022/08/31 02:16:52;;;;;;;6.53;3.10;;;;;;;14.61;100.00;102365.59;7377218;19;20014;-72
2022/08/31 02:19:22;;;;;;;6.93;3.13;;;;;;;14.58;100.00;102368.19;7378925;19;20065;-72
2022/08/31 02:21:52;;;;;;;5.97;3.17;;;;;;;14.55;100.00;102364.63;7378523;19;20023;-74
2022/08/31 02:24:24;;;;;;;6.15;2.95;;;;;;;14.54;100.00;102363.72;7378610;19;20010;-74
2022/08/31 02:26:55;;;;;;;7.75;3.53;;;;;;;14.52;100.00;102369.84;7377784;19;20414;-75
2022/08/31 02:29:25;;;;;;;8.32;3.22;;;;;;;14.48;100.00;102373.28;7375793;19;20598;-75
2022/08/31 02:31:57;;;;;;;5.43;3.33;;;;;;;14.46;100.00;102367.97;7378368;19;20014;-74
2022/08/31 02:34:28;;;;;;;7.45;3.20;;;;;;;14.42;100.00;102374.03;7380152;19;20008;-74
2022/08/31 02:36:58;;;;;;;8.57;3.20;;;;;;;14.44;100.00;102367.03;7378025;19;20006;-75
2022/08/31 02:39:31;;;;;;;5.80;3.30;;;;;;;14.45;100.00;102373.19;7380686;19;20474;-76
2022/08/31 02:42:07;;;;;;;6.50;3.15;;;;;;;14.43;100.00;102369.63;7377452;19;20011;-76
2022/08/31 02:44:38;;;;;;;7.30;3.17;;;;;;;14.36;100.00;102365.94;7379394;19;20022;-76
2022/08/31 02:47:08;;;;;;;5.78;3.30;;;;;;;14.31;100.00;102367.59;7379138;19;20011;-74
2022/08/31 02:49:38;;;;;;;6.68;3.10;;;;;;;14.30;100.00;102364.06;7378091;19;20755;-74
2022/08/31 02:52:08;;;;;;;6.07;2.92;;;;;;;14.30;100.00;102368.44;7375872;19;20015;-72
2022/08/31 02:54:41;;;;;;;5.05;3.10;;;;;;;14.29;100.00;102369.31;7379518;19;20013;-72
2022/08/31 02:57:10;;;;;;;4.80;3.20;;;;;;;14.26;100.00;102362.22;7379977;19;20018;-73
2022/08/31 02:59:40;;;;;;;6.70;3.03;;;;;;;14.25;100.00;102364.81;7379678;19;20010;-73
2022/08/31 03:02:10;;;;;;;7.90;3.33;;;;;;;14.24;100.00;102373.59;7374065;19;20015;-73
2022/08/31 03:04:40;;;;;;;4.90;2.90;;;;;;;14.23;100.00;102371.81;7379871;19;20011;-75
2022/08/31 03:07:10;;;;;;;5.38;2.90;;;;;;;14.21;100.00;102370.88;7377384;19;20022;-75
2022/08/31 03:09:43;;;;;;;5.60;3.15;;;;;;;14.23;100.00;102374.44;7378115;19;20018;-75
2022/08/31 03:12:13;;;;;;;6.23;3.37;;;;;;;14.19;100.00;102369.94;7379348;19;20014;-75
2022/08/31 03:14:43;;;;;;;5.38;2.95;;;;;;;14.17;100.00;102369.03;7379211;19;20030;-75
2022/08/31 03:17:13;;;;;;;8.38;3.65;;;;;;;14.13;100.00;102362.78;7379953;19;20018;-76
2022/08/31 03:19:43;;;;;;;5.85;3.00;;;;;;;14.12;100.00;102365.38;7385196;19;20082;-75
2022/08/31 03:22:14;;;;;;;5.97;2.83;;;;;;;14.07;100.00;102371.44;7380288;19;20074;-75
2022/08/31 03:24:49;;;;;;;7.00;3.20;;;;;;;14.06;100.00;102376.69;7379753;19;20011;-75
2022/08/31 03:27:18;;;;;;;6.25;3.08;;;;;;;14.03;100.00;102374.88;7383166;19;20022;-75
2022/08/31 03:29:48;;;;;;;5.70;3.53;;;;;;;14.01;100.00;102375.69;7379700;19;20023;-75
2022/08/31 03:32:18;;;;;;;6.20;3.10;;;;;;;14.02;100.00;102380.09;7380325;19;20015;-75
2022/08/31 03:34:49;;;;;;;5.35;2.85;;;;;;;13.99;100.00;102382.69;7380893;19;20014;-76
2022/08/31 03:37:20;;;;;;;5.88;2.70;;;;;;;13.97;100.00;102376.47;7378057;19;20038;-75
2022/08/31 03:39:52;;;;;;;6.53;3.35;;;;;;;13.94;100.00;102382.56;7380348;19;20190;-77
2022/08/31 03:42:22;;;;;;;4.65;2.88;;;;;;;13.93;100.00;102386.06;7377289;19;20092;-75
2022/08/31 03:44:52;;;;;;;6.63;3.03;;;;;;;13.92;100.00;102386.91;7379707;19;20023;-75
2022/08/31 03:47:22;;;;;;;6.65;3.13;;;;;;;13.92;100.00;102381.63;7382059;19;20015;-75
2022/08/31 03:49:57;;;;;;;7.65;3.00;;;;;;;13.93;100.00;102377.25;7377395;19;20026;-75
2022/08/31 03:52:30;;;;;;;7.40;3.33;;;;;;;13.94;100.00;102379.03;7375481;19;20014;-75
2022/08/31 03:55:04;;;;;;;7.22;3.95;;;;;;;13.93;100.00;102390.44;7381311;19;20314;-75
2022/08/31 03:57:41;;;;;;;6.90;3.20;;;;;;;13.92;100.00;102380.75;7382827;19;20007;-75
2022/08/31 04:00:12;;;;;;;7.80;3.67;;;;;;;13.93;100.00;102387.81;7386004;19;20046;-75
2022/08/31 04:02:42;;;;;;;7.15;3.25;;;;;;;13.93;100.00;102383.41;7386553;19;20017;-75
2022/08/31 04:05:13;;;;;;;5.45;3.10;;;;;;;13.91;100.00;102387.75;7388174;19;20029;-76
2022/08/31 04:07:42;;;;;;;7.45;3.55;;;;;;;13.90;100.00;102388.63;7386670;19;20070;-72
2022/08/31 04:10:16;;;;;;;7.43;3.15;;;;;;;13.90;100.00;102390.38;7388161;19;20078;-73
2022/08/31 04:12:45;;;;;;;7.85;3.58;;;;;;;13.87;100.00;102385.91;7382544;19;20434;-72
2022/08/31 04:15:16;;;;;;;7.30;3.42;;;;;;;13.88;100.00;102384.16;7376952;19;21373;-74
2022/08/31 04:17:46;;;;;;;5.88;3.38;;;;;;;13.89;100.00;102392.09;7375073;19;20022;-73
2022/08/31 04:20:16;;;;;;;6.32;3.20;;;;;;;13.93;100.00;102390.44;7375156;19;20032;-73
2022/08/31 04:22:47;;;;;;;7.40;3.58;;;;;;;13.89;100.00;102393.84;7376262;19;20022;-77
2022/08/31 04:25:20;;;;;;;6.70;3.17;;;;;;;13.90;100.00;102390.38;7376309;19;20010;-76
2022/08/31 04:27:53;;;;;;;5.80;3.25;;;;;;;13.90;100.00;102393.91;7376315;19;20765;-77
2022/08/31 04:30:22;;;;;;;7.30;3.60;;;;;;;13.93;100.00;102393.97;7376457;19;20043;-77
2022/08/31 04:32:55;;;;;;;5.80;3.30;;;;;;;13.87;100.00;102398.19;7373825;19;20052;-75
2022/08/31 04:35:25;;;;;;;6.60;3.50;;;;;;;13.87;100.00;102399.09;7375572;19;20007;-76
2022/08/31 04:38:00;;;;;;;7.38;3.58;;;;;;;13.85;100.00;102395.53;7374314;19;20014;-75
2022/08/31 04:40:35;;;;;;;8.15;3.78;;;;;;;13.83;100.00;102412.16;7375095;19;20015;-76
2022/08/31 04:43:08;;;;;;;8.05;3.42;;;;;;;13.81;100.00;102404.22;7372684;19;20035;-74
2022/08/31 04:45:43;;;;;;;7.88;3.45;;;;;;;13.80;100.00;102405.06;7374322;19;20630;-75
2022/08/31 04:48:14;;;;;;;7.80;3.72;;;;;;;13.81;100.00;102401.59;7374649;19;20043;-75
2022/08/31 04:50:44;;;;;;;8.60;3.30;;;;;;;13.79;100.00;102402.41;7374211;19;20451;-75
2022/08/31 04:53:14;;;;;;;6.47;3.50;;;;;;;13.77;100.00;102402.34;7367276;19;20007;-75
2022/08/31 04:55:46;;;;;;;7.35;3.55;;;;;;;13.79;100.00;102411.19;7375213;19;20326;-75
2022/08/31 04:58:19;;;;;;;13.63;3.92;;;;;;;13.79;100.00;102403.28;7375058;19;20140;-76
2022/08/31 05:00:48;;;;;;;7.13;3.58;;;;;;;13.78;100.00;102409.41;7373374;19;20078;-75
2022/08/31 05:03:19;;;;;;;6.97;3.10;;;;;;;13.79;100.00;102411.19;7376785;19;20039;-75
2022/08/31 05:05:51;;;;;;;6.50;3.15;;;;;;;13.79;100.00;102411.19;7376000;19;20496;-75
2022/08/31 05:08:21;;;;;;;4.55;2.80;;;;;;;13.75;100.00;102406.69;7378878;19;20014;-75
2022/08/31 05:10:53;;;;;;;6.38;3.08;;;;;;;13.75;100.00;102409.34;7378665;19;20010;-75
2022/08/31 05:13:23;;;;;;;7.13;3.05;;;;;;;13.77;100.00;102412.00;7379756;19;20129;-76
2022/08/31 05:15:54;;;;;;;6.20;2.85;;;;;;;13.77;100.00;102412.91;7377325;19;20014;-75
2022/08/31 05:18:25;;;;;;;5.60;2.80;;;;;;;13.74;100.00;102420.75;7376596;19;20006;-75
2022/08/31 05:20:56;;;;;;;6.10;2.72;;;;;;;13.75;100.00;102419.88;7376180;19;20029;-75
2022/08/31 05:23:26;;;;;;;3.63;2.63;;;;;;;13.74;100.00;102415.47;7373056;19;20027;-75
2022/08/31 05:25:59;;;;;;;5.63;2.63;;;;;;;13.72;100.00;102412.78;7373967;19;20036;-75
2022/08/31 05:28:38;;;;;;;5.93;2.78;;;;;;;13.75;100.00;102414.59;7375462;19;20285;-77
2022/08/31 05:31:08;;;;;;;6.75;2.50;;;;;;;13.77;100.00;102417.28;7374508;19;20019;-75
2022/08/31 05:33:38;;;;;;;5.45;2.20;;;;;;;13.82;100.00;102424.47;7374294;19;20035;-75
2022/08/31 05:36:09;;;;;;;4.13;2.30;;;;;;;13.85;100.00;102419.25;7374992;19;20114;-77
2022/08/31 05:38:40;;;;;;;5.05;2.25;;;;;;;13.93;100.00;102422.97;7374566;19;20018;-74
2022/08/31 05:41:16;;;;;;;5.38;2.08;;;;;;;14.03;100.00;102430.28;7370639;19;20411;-76
2022/08/31 05:43:45;;;;;;;5.13;2.50;;;;;;;14.11;100.00;102424.28;7371260;19;20049;-76
2022/08/31 05:46:16;;;;;;;3.25;2.17;;;;;;;14.11;100.00;102417.25;7379247;19;20487;-76
2022/08/31 05:48:46;;;;;;;6.43;2.40;;;;;;;14.16;100.00;102420.91;7382202;19;20019;-75
2022/08/31 05:51:20;;;;;;;5.45;2.30;;;;;;;14.22;100.00;102420.16;7381526;19;20007;-76
2022/08/31 05:53:51;;;;;;;3.22;1.88;;;;;;;14.39;100.00;102422.31;7377375;19;20048;-76
2022/08/31 05:56:28;;;;;;;3.40;1.90;;;;;;;14.56;100.00;102413.94;7382287;19;20049;-76
2022/08/31 05:58:59;;;;;;;3.83;2.03;;;;;;;14.68;100.00;102422.09;7383058;19;20017;-75
2022/08/31 06:01:35;;;;;;;3.90;1.88;;;;;;;14.80;100.00;102414.41;7381529;19;20077;-75
2022/08/31 06:04:10;;;;;;;3.67;1.80;;;;;;;14.86;100.00;102417.19;7383193;19;20017;-77
2022/08/31 06:06:40;;;;;;;3.63;2.00;;;;;;;14.93;100.00;102423.50;7386422;19;20015;-76
2022/08/31 06:09:10;;;;;;;7.22;2.00;;;;;;;15.07;100.00;102419.38;7382360;19;20027;-75
2022/08/31 06:11:43;;;;;;;4.60;1.88;;;;;;;15.23;100.00;102426.75;7383856;19;20018;-76
2022/08/31 06:14:13;;;;;;;2.50;1.48;;;;;;;15.35;100.00;102424.34;7383312;19;20047;-76
2022/08/31 06:16:45;;;;;;;2.88;1.70;;;;;;;15.49;100.00;102434.28;7382871;19;20043;-75
2022/08/31 06:19:15;;;;;;;6.13;1.55;;;;;;;15.61;100.00;102429.22;7381311;19;20386;-75
2022/08/31 06:21:48;;;;;;;6.05;1.70;;;;;;;15.81;100.00;102427.81;7381792;19;20007;-76
2022/08/31 06:24:19;;;;;;;3.13;1.63;;;;;;;15.98;100.00;102428.97;7383225;19;20022;-75
2022/08/31 06:26:54;;;;;;;3.08;1.60;;;;;;;16.10;100.00;102430.03;7384786;19;20444;-76
2022/08/31 06:29:30;;;;;;;1.85;1.40;;;;;;;16.14;100.00;102429.22;7385635;19;20032;-76
2022/08/31 06:32:08;;;;;;;3.17;1.80;;;;;;;16.33;100.00;102429.53;7381966;19;20007;-75
2022/08/31 06:34:39;;;;;;;3.75;1.92;;;;;;;16.34;100.00;102433.06;7382082;19;20602;-74
2022/08/31 06:37:10;;;;;;;2.97;1.50;;;;;;;16.54;100.00;102423.66;7383370;19;20048;-73
2022/08/31 06:39:47;;;;;;;3.30;1.92;;;;;;;16.72;100.00;102433.59;7384689;19;20010;-73
2022/08/31 06:42:20;;;;;;;6.65;1.60;;;;;;;16.79;100.00;102431.94;7382402;19;20035;-73
2022/08/31 06:44:51;;;;;;;10.10;2.08;;;;;;;16.96;100.00;102433.03;7382517;19;20018;-74
2022/08/31 06:47:21;;;;;;;7.70;1.80;;;;;;;16.94;100.00;102434.78;7381069;19;20006;-76
2022/08/31 06:49:52;;;;;;;6.95;1.90;;;;;;;17.00;100.00;102434.84;7383905;19;20019;-75
2022/08/31 06:52:22;;;;;;;3.67;1.65;;;;;;;17.20;99.11;102428.03;7379051;19;20025;-76
2022/08/31 06:54:55;;;;;;;1.77;1.40;;;;;;;17.26;99.03;102428.09;7378546;19;20029;-75
2022/08/31 06:57:28;;;;;;;5.82;1.70;;;;;;;17.41;98.61;102431.78;7378825;19;20017;-74
2022/08/31 07:00:00;;;;;;;4.38;1.88;;;;;;;17.42;98.62;102439.75;7381510;19;20006;-73
2022/08/31 07:02:30;;;;;;;3.85;1.83;;;;;;;17.54;98.20;102436.34;7381298;19;20020;-73
2022/08/31 07:05:07;;;;;;;5.03;1.90;;;;;;;17.53;97.57;102440.75;7381847;19;21092;-74
2022/08/31 07:07:43;;;;;;;4.07;2.03;;;;;;;17.85;97.88;102442.81;7381955;19;20019;-73
2022/08/31 07:10:13;;;;;;;2.90;1.73;;;;;;;17.96;96.05;102452.66;7384020;19;20513;-72
2022/08/31 07:12:46;;;;;;;9.98;2.15;;;;;;;17.95;95.21;102456.19;7377422;19;20467;-72
2022/08/31 07:15:16;;;;;;;4.17;1.80;;;;;;;18.14;94.80;102454.56;7380957;19;20046;-71
2022/08/31 07:17:47;;;;;;;4.72;1.73;;;;;;;18.26;94.53;102453.78;7382910;19;20006;-73
2022/08/31 07:20:17;;;;;;;3.13;1.63;;;;;;;18.47;93.61;102456.59;7383068;19;20379;-74
2022/08/31 07:22:49;;;;;;;4.57;2.60;;;;;;;18.39;92.44;102449.44;7390835;19;20026;-75
2022/08/31 07:25:19;;;;;;;4.25;1.50;;;;;;;18.55;92.94;102452.19;7390344;19;20042;-74
2022/08/31 07:28:28;;;;;;;4.40;1.98;;;;;;;18.72;91.56;102448.78;7388825;19;20013;-74
2022/08/31 07:31:12;;;;;;;3.35;2.20;;;;;;;18.73;90.38;102454.06;7384386;19;20003;-76
2022/08/31 07:33:42;;;;;;;4.22;2.03;;;;;;;18.66;89.31;102449.66;7377574;19;20015;-78
2022/08/31 07:36:14;;;;;;;3.70;1.73;;;;;;;18.85;87.86;102448.81;7376282;19;19998;-78
2022/08/31 07:44:26;;;;;;;3.92;1.75;;;;;;;19.13;88.25;102440.97;7379994;19;20664;-77
2022/08/31 07:47:07;;;;;;;4.30;2.00;;;;;;;19.35;87.73;102447.22;7381747;19;20119;-77
2022/08/31 07:49:38;;;;;;;6.13;2.10;;;;;;;19.38;86.96;102455.22;7386385;19;20010;-77
2022/08/31 07:52:10;;;;;;;3.88;2.25;;;;;;;19.56;86.02;102452.63;7375225;19;20010;-78
2022/08/31 07:54:41;;;;;;;4.32;1.70;;;;;;;19.58;85.32;102446.44;7376667;19;20027;-77
2022/08/31 07:57:12;;;;;;;5.32;2.30;;;;;;;19.64;83.57;102445.56;7382247;19;20027;-77
2022/08/31 07:59:41;;;;;;;3.53;1.70;;;;;;;19.52;83.96;102449.06;7383625;19;20483;-78
2022/08/31 08:02:16;;;;;;;4.25;1.55;;;;;;;19.84;83.23;102457.06;7383048;19;20007;-76
2022/08/31 08:04:49;;;;;;;4.35;2.03;;;;;;;20.09;80.55;102455.31;7377404;19;20035;-76
2022/08/31 08:07:19;;;;;;;6.93;1.98;;;;;;;20.12;80.37;102454.41;7370750;19;20015;-77
2022/08/31 08:09:54;;;;;;;3.10;2.20;;;;;;;20.28;79.31;102458.84;7375648;19;20007;-77
2022/08/31 08:12:24;;;;;;;4.10;1.98;;;;;;;20.21;78.96;102454.41;7375433;19;20031;-78
2022/08/31 08:15:00;;;;;;;3.22;1.52;;;;;;;20.54;78.51;102457.06;7373770;19;20019;-77
2022/08/31 08:17:34;;;;;;;3.70;1.88;;;;;;;20.95;76.37;102466.66;7375410;19;20028;-77
2022/08/31 08:20:08;;;;;;;3.72;1.90;;;;;;;20.66;76.81;102460.59;7376042;19;20014;-77
2022/08/31 08:22:43;;;;;;;3.85;2.05;;;;;;;20.82;76.42;102456.94;7374758;19;20002;-78
2022/08/31 08:25:24;;;;;;;3.92;2.00;;;;;;;20.59;75.61;102470.38;7377019;19;20315;-77
2022/08/31 08:27:56;;;;;;;4.63;2.08;;;;;;;21.00;75.97;102466.66;7382433;19;20011;-78
2022/08/31 08:30:27;;;;;;;4.78;2.05;;;;;;;20.75;76.27;102471.22;7379920;19;20014;-75
2022/08/31 08:33:02;;;;;;;3.92;1.80;;;;;;;20.65;75.22;102464.13;7379235;19;20010;-75
2022/08/31 08:35:39;;;;;;;4.68;1.90;;;;;;;20.97;74.25;102464.00;7381054;19;20035;-77
2022/08/31 08:38:12;;;;;;;4.50;2.08;;;;;;;21.04;74.11;102471.97;7380879;19;20010;-77
2022/08/31 08:40:44;;;;;;;2.25;1.65;;;;;;;20.96;74.73;102468.44;7379319;19;20010;-75
2022/08/31 08:43:18;;;;;;;3.88;2.00;;;;;;;21.06;75.05;102461.28;7375938;19;20006;-75
2022/08/31 08:45:51;;;;;;;4.35;1.88;;;;;;;21.32;73.38;102466.53;7379295;19;20015;-77
2022/08/31 08:48:28;;;;;;;4.00;1.92;;;;;;;20.99;74.25;102468.44;7377717;19;20007;-75
2022/08/31 08:51:00;;;;;;;6.30;2.33;;;;;;;20.86;75.08;102472.03;7380270;19;20424;-75
2022/08/31 08:53:34;;;;;;;4.43;1.90;;;;;;;21.16;74.87;102461.25;7373677;19;20130;-75
2022/08/31 08:56:10;;;;;;;4.93;1.98;;;;;;;21.49;74.55;102464.66;7377832;19;20021;-74
2022/08/31 08:59:01;;;;;;;5.45;2.10;;;;;;;21.42;74.62;102465.59;7376624;19;20017;-74
2022/08/31 09:01:39;;;;;;;4.15;2.05;;;;;;;21.60;73.73;102468.16;7383105;19;20031;-78
2022/08/31 09:04:24;;;;;;;3.30;1.83;;;;;;;21.54;73.00;102461.06;7383791;19;20027;-76
2022/08/31 09:07:05;;;;;;;4.18;2.10;;;;;;;21.70;72.90;102472.53;7386800;19;20020;-78
2022/08/31 09:09:43;;;;;;;3.40;1.90;;;;;;;21.75;72.12;102469.81;7386896;19;20082;-78
2022/08/31 09:12:25;;;;;;;4.43;2.00;;;;;;;21.70;72.09;102474.31;7383188;19;19998;-78
2022/08/31 09:15:26;;;;;;;4.65;1.90;;;;;;;21.93;71.40;102477.66;7384580;19;20090;-80
2022/08/31 09:18:08;;;;;;;4.57;1.98;;;;;;;21.94;71.34;102471.44;7381819;19;20065;-77
2022/08/31 09:20:42;;;;;;;3.55;1.70;;;;;;;22.05;71.90;102477.59;7395159;19;20015;-80
2022/08/31 09:23:14;;;;;;;4.90;2.05;;;;;;;21.85;72.02;102482.19;7388085;19;20042;-79
2022/08/31 09:25:51;;;;;;;3.65;1.85;;;;;;;21.99;71.61;102482.06;7396022;19;20015;-80
2022/08/31 09:28:39;;;;;;;3.13;1.90;;;;;;;22.00;72.62;102478.50;7394468;19;20046;-80
2022/08/31 09:31:09;;;;;;;2.00;1.65;;;;;;;22.59;71.93;102469.06;7395712;19;20006;-80
2022/08/31 09:33:49;;;;;;;4.20;1.80;;;;;;;22.65;71.28;102474.34;7393295;19;20010;-80
2022/08/31 09:36:25;;;;;;;4.10;1.83;;;;;;;22.49;70.90;102478.97;7392118;19;20011;-80
2022/08/31 09:38:56;;;;;;;5.22;2.03;;;;;;;22.69;70.23;102473.44;7395089;19;20042;-81
2022/08/31 09:41:37;;;;;;;4.53;1.98;;;;;;;22.48;71.31;102471.88;7396509;19;20011;-80
2022/08/31 09:44:30;;;;;;;6.22;2.30;;;;;;;22.55;71.30;102472.69;7392421;19;20251;-80
2022/08/31 09:47:18;;;;;;;4.90;2.20;;;;;;;22.50;71.71;102468.28;7390390;19;20589;-80
2022/08/31 09:49:57;;;;;;;5.40;2.50;;;;;;;22.68;72.26;102474.31;7394101;19;20263;-80
2022/08/31 09:55:24;;;;;;;3.92;2.20;;;;;;;22.49;71.85;102466.50;7394279;19;20011;-80
2022/08/31 09:58:03;;;;;;;3.25;2.13;;;;;;;22.82;70.05;102467.06;7394576;19;20035;-80
2022/08/31 10:00:42;;;;;;;6.72;2.38;;;;;;;22.78;71.67;102466.19;7383948;19;20014;-74
2022/08/31 10:03:19;;;;;;;5.47;2.10;;;;;;;23.17;69.85;102459.44;7382567;19;20019;-76
2022/08/31 10:05:53;;;;;;;5.03;2.28;;;;;;;23.17;70.66;102458.56;7380211;19;20010;-75
2022/08/31 10:08:38;;;;;;;;;;;;;;;22.99;69.79;102457.00;7382702;19;20653;-75
2022/08/31 10:11:13;;;;;;;5.20;2.53;;;;;;;23.35;68.24;102446.72;7381594;19;19914;-73
2022/08/31 10:13:48;;;;;;;7.00;2.25;;;;;;;22.95;67.10;102452.59;7381154;19;20014;-73
2022/08/31 10:16:24;;;;;;;3.22;2.28;;;;;;;23.20;67.72;102441.59;7386283;19;20047;-75
2022/08/31 10:19:06;;;;;;;5.70;2.22;;;;;;;23.10;68.11;102441.72;7386495;19;20015;-74
2022/08/31 10:21:50;;;;;;;3.72;2.22;;;;;;;23.45;66.48;102432.28;7386658;19;20015;-74
2022/08/31 10:24:33;;;;;;;3.25;2.00;;;;;;;23.31;65.64;102434.28;7383463;19;20010;-73
2022/08/31 10:27:16;;;;;;;9.75;2.60;;;;;;;23.38;65.41;102442.22;7382786;19;20011;-75
2022/08/31 10:29:54;;;;;;;7.45;2.42;;;;;;;23.28;65.32;102445.03;7381564;19;20019;-74
2022/08/31 10:32:38;;;;;;;6.68;2.47;;;;;;;23.42;65.48;102437.69;7382359;19;20018;-73
2022/08/31 10:35:13;;;;;;;4.95;2.15;;;;;;;23.51;66.35;102436.66;7387071;19;20114;-75
2022/08/31 10:37:54;;;;;;;8.18;2.20;;;;;;;23.49;65.44;102436.69;7389039;19;20378;-73
2022/08/31 10:40:36;;;;;;;5.07;2.20;;;;;;;23.38;65.37;102425.25;7391820;19;20017;-73
2022/08/31 10:43:15;;;;;;;4.40;2.22;;;;;;;23.53;64.97;102427.69;7392786;19;20817;-73
2022/08/31 10:45:48;;;;;;;4.47;2.17;;;;;;;23.55;65.96;102423.25;7391613;19;20035;-74
2022/08/31 10:48:19;;;;;;;6.27;2.50;;;;;;;23.45;66.26;102422.47;7391282;19;20029;-74
2022/08/31 10:51:04;;;;;;;5.38;2.38;;;;;;;23.67;65.41;102420.38;7385536;19;20007;-74
2022/08/31 10:53:55;;;;;;;5.47;2.65;;;;;;;23.55;65.14;102428.59;7382877;19;20014;-74
2022/08/31 10:56:40;;;;;;;4.68;2.40;;;;;;;23.86;64.31;102425.44;7391987;19;20010;-74
2022/08/31 10:59:21;;;;;;;5.82;2.50;;;;;;;24.12;63.79;102425.84;7392401;19;20015;-73
2022/08/31 11:01:59;;;;;;;5.30;2.00;;;;;;;24.05;63.52;102429.53;7392857;19;20070;-73
2022/08/31 11:04:54;;;;;;;5.20;2.60;;;;;;;23.62;66.47;102432.94;7391051;19;20014;-75
2022/08/31 11:07:41;;;;;;;6.95;2.40;;;;;;;23.73;66.62;102424.75;7381585;19;20014;-73
2022/08/31 11:10:26;;;;;;;5.07;2.30;;;;;;;24.14;65.44;102424.00;7379740;19;20061;-73
2022/08/31 11:13:04;;;;;;;6.88;2.65;;;;;;;23.93;65.22;102430.63;7380465;19;20010;-73
2022/08/31 11:16:01;;;;;;;6.07;2.60;;;;;;;24.40;63.99;102416.41;7376878;19;20401;-75
2022/08/31 11:18:55;;;;;;;5.95;2.50;;;;;;;24.12;64.61;102426.72;7381581;19;20014;-74
2022/08/31 11:21:57;;;;;;;4.35;2.33;;;;;;;23.88;65.08;102426.28;7377591;19;20013;-74
2022/08/31 11:24:54;;;;;;;4.05;2.30;;;;;;;23.52;65.82;102430.41;7381984;19;20454;-74
2022/08/31 11:27:27;;;;;;;6.03;2.70;;;;;;;24.21;65.05;102436.38;7380520;19;20018;-75
2022/08/31 11:30:06;;;;;;;4.97;2.38;;;;;;;24.09;64.72;102420.53;7382609;19;20018;-75
2022/08/31 11:32:46;;;;;;;6.95;2.55;;;;;;;23.90;65.32;102424.47;7378859;19;20325;-75
2022/08/31 11:35:17;;;;;;;6.53;2.40;;;;;;;24.05;66.15;102413.44;7379069;19;20028;-75
2022/08/31 11:37:55;;;;;;;5.38;2.10;;;;;;;24.16;65.35;102411.47;7377852;19;20332;-75
2022/08/31 11:41:13;;;;;;;5.13;2.10;;;;;;;24.16;65.63;102411.47;7376504;19;20010;-75
2022/08/31 11:43:53;;;;;;;3.78;2.13;;;;;;;24.44;65.08;102396.66;7374499;19;20014;-73
2022/08/31 11:46:44;;;;;;;4.22;2.53;;;;;;;24.47;63.63;102400.19;7379451;19;20018;-74
2022/08/31 11:49:46;;;;;;;5.57;2.20;;;;;;;24.32;63.40;102394.22;7375259;19;20014;-76
2022/08/31 11:52:42;;;;;;;5.57;2.60;;;;;;;24.07;64.67;102395.53;7373717;19;20176;-75
2022/08/31 11:55:20;;;;;;;7.57;2.50;;;;;;;24.84;63.03;102395.84;7375964;19;20014;-75
2022/08/31 11:58:17;;;;;;;4.25;2.50;;;;;;;24.68;61.71;102383.66;7378349;19;20019;-76
2022/08/31 12:00:56;;;;;;;5.68;2.25;;;;;;;24.56;62.45;102387.47;7376782;19;20006;-76
2022/08/31 12:03:42;;;;;;;6.13;2.50;;;;;;;24.28;61.67;102387.13;7379679;19;20018;-77
2022/08/31 12:06:30;;;;;;;6.55;2.10;;;;;;;24.55;61.26;102385.72;7374927;19;20377;-78
2022/08/31 12:09:21;;;;;;;6.05;2.20;;;;;;;24.29;61.23;102382.66;7377289;19;20010;-78